createdAt,value
2023-09-06T00:02:18.659Z,57.85
2023-09-06T00:04:45.081Z,59.13
2023-09-06T00:07:11.614Z,60.04
2023-09-06T00:09:37.879Z,61.05
2023-09-06T00:12:04.163Z,62.02
2023-09-06T00:14:30.420Z,64.68
2023-09-06T00:16:56.830Z,60.73
2023-09-06T00:19:25.205Z,54.89
2023-09-06T00:21:51.770Z,55.47
2023-09-06T00:24:20.196Z,57.53
2023-09-06T00:26:46.456Z,59.11
2023-09-06T00:29:12.732Z,60.50
2023-09-06T00:31:39.063Z,61.24
2023-09-06T00:34:05.411Z,61.51
2023-09-06T00:36:33.475Z,62.15
2023-09-06T00:38:59.712Z,65.21
2023-09-06T00:41:25.997Z,60.97
2023-09-06T00:43:52.306Z,54.66
2023-09-06T00:46:18.573Z,54.95
2023-09-06T00:48:44.947Z,56.92
2023-09-06T00:51:11.193Z,58.35
2023-09-06T00:53:37.914Z,59.49
2023-09-06T00:56:04.249Z,60.42
2023-09-06T00:58:30.730Z,61.43
2023-09-06T01:00:58.190Z,62.05
2023-09-06T01:03:24.584Z,64.71
2023-09-06T01:05:51.004Z,60.93
2023-09-06T01:08:19.351Z,54.90
2023-09-06T01:10:45.716Z,55.30
2023-09-06T01:13:12.071Z,57.33
2023-09-06T01:15:38.531Z,58.79
2023-09-06T01:18:04.884Z,60.21
2023-09-06T01:20:32.016Z,61.14
2023-09-06T01:22:58.869Z,62.11
2023-09-06T01:25:25.214Z,64.58
2023-09-06T01:27:51.525Z,60.92
2023-09-06T01:30:19.095Z,55.18
2023-09-06T01:32:45.415Z,55.52
2023-09-06T01:35:11.750Z,57.39
2023-09-06T01:37:38.301Z,58.86
2023-09-06T01:40:14.957Z,60.13
2023-09-06T01:42:41.260Z,61.27
2023-09-06T01:45:07.484Z,61.98
2023-09-06T01:47:33.797Z,64.39
2023-09-06T01:50:00.089Z,61.07
2023-09-06T01:52:26.363Z,55.24
2023-09-06T01:54:52.624Z,55.45
2023-09-06T01:57:18.858Z,57.16
2023-09-06T01:59:45.151Z,58.71
2023-09-06T02:02:11.476Z,60.03
2023-09-06T02:04:38.826Z,60.99
2023-09-06T02:07:05.133Z,61.71
2023-09-06T02:09:32.488Z,64.51
2023-09-06T02:11:59.855Z,61.68
2023-09-06T02:14:26.100Z,55.46
2023-09-06T02:16:52.322Z,55.37
2023-09-06T02:19:20.294Z,57.35
2023-09-06T02:21:46.696Z,58.70
2023-09-06T02:24:13.319Z,59.72
2023-09-06T02:26:39.582Z,60.55
2023-09-06T02:29:05.930Z,61.30
2023-09-06T02:31:32.190Z,61.99
2023-09-06T02:33:58.578Z,64.93
2023-09-06T02:36:24.826Z,60.99
2023-09-06T02:38:51.112Z,54.84
2023-09-06T02:41:17.355Z,54.93
2023-09-06T02:43:43.580Z,56.61
2023-09-06T02:46:11.321Z,58.24
2023-09-06T02:48:38.993Z,59.40
2023-09-06T02:51:08.616Z,60.22
2023-09-06T02:53:34.902Z,60.95
2023-09-06T02:56:02.264Z,61.62
2023-09-06T02:58:28.989Z,64.76
2023-09-06T03:00:59.058Z,61.40
2023-09-06T03:03:29.617Z,55.07
2023-09-06T03:05:56.226Z,55.06
2023-09-06T03:08:25.843Z,56.74
2023-09-06T03:10:54.880Z,58.31
2023-09-06T03:13:21.237Z,59.54
2023-09-06T03:15:51.992Z,60.82
2023-09-06T03:18:19.532Z,61.97
2023-09-06T03:20:45.807Z,64.81
2023-09-06T03:23:18.654Z,61.02
2023-09-06T03:25:46.189Z,54.61
2023-09-06T03:28:12.492Z,55.01
2023-09-06T03:30:39.458Z,56.89
2023-09-06T03:33:06.034Z,58.86
2023-09-06T03:35:32.305Z,59.95
2023-09-06T03:37:59.500Z,60.67
2023-09-06T03:40:26.124Z,61.26
2023-09-06T03:42:52.365Z,62.03
2023-09-06T03:45:22.031Z,64.92
2023-09-06T03:47:48.450Z,61.18
2023-09-06T03:50:16.264Z,55.23
2023-09-06T03:52:43.844Z,54.98
2023-09-06T03:55:10.759Z,56.99
2023-09-06T03:57:37.669Z,58.50
2023-09-06T04:00:23.071Z,59.56
2023-09-06T04:02:50.618Z,60.53
2023-09-06T04:05:17.088Z,61.40
2023-09-06T04:07:43.869Z,62.21
2023-09-06T04:10:16.908Z,65.31
2023-09-06T04:12:43.256Z,60.70
2023-09-06T04:15:09.543Z,54.64
2023-09-06T04:17:35.838Z,55.30
2023-09-06T04:20:18.538Z,57.14
2023-09-06T04:22:46.093Z,59.05
2023-09-06T04:25:12.457Z,60.12
2023-09-06T04:27:40.086Z,61.21
2023-09-06T04:30:06.335Z,62.28
2023-09-06T04:32:32.610Z,65.35
2023-09-06T04:34:59.508Z,61.70
2023-09-06T04:37:28.980Z,55.51
2023-09-06T04:39:55.271Z,55.51
2023-09-06T04:42:21.528Z,57.56
2023-09-06T04:44:47.811Z,59.22
2023-09-06T04:47:14.823Z,60.45
2023-09-06T04:49:41.378Z,61.43
2023-09-06T04:52:08.592Z,62.37
2023-09-06T04:54:34.860Z,65.87
2023-09-06T04:57:01.159Z,61.46
2023-09-06T04:59:27.716Z,55.70
2023-09-06T05:01:54.023Z,55.77
2023-09-06T05:04:20.427Z,57.90
2023-09-06T05:06:46.853Z,60.04
2023-09-06T05:09:16.284Z,61.60
2023-09-06T05:11:42.531Z,62.74
2023-09-06T05:14:10.769Z,65.20
2023-09-06T05:16:37.163Z,60.28
2023-09-06T05:19:03.424Z,55.69
2023-09-06T05:21:29.979Z,56.81
2023-09-06T05:23:56.261Z,59.06
2023-09-06T05:26:22.498Z,60.92
2023-09-06T05:28:49.320Z,62.59
2023-09-06T05:31:15.599Z,65.25
2023-09-06T05:33:41.874Z,60.03
2023-09-06T05:36:09.538Z,55.83
2023-09-06T05:38:35.781Z,57.34
2023-09-06T05:41:02.928Z,59.55
2023-09-06T05:43:29.228Z,61.11
2023-09-06T05:45:55.500Z,61.82
2023-09-06T05:48:21.952Z,65.71
2023-09-06T05:50:48.235Z,61.91
2023-09-06T05:53:15.684Z,56.31
2023-09-06T05:55:42.433Z,56.61
2023-09-06T05:58:08.760Z,58.53
2023-09-06T06:00:37.256Z,60.07
2023-09-06T06:03:04.060Z,61.14
2023-09-06T06:05:30.470Z,64.90
2023-09-06T06:07:58.389Z,62.35
2023-09-06T06:10:24.706Z,56.72
2023-09-06T06:12:51.861Z,55.99
2023-09-06T06:15:18.119Z,58.28
2023-09-06T06:17:44.382Z,60.23
2023-09-06T06:20:11.599Z,61.33
2023-09-06T06:22:41.485Z,64.83
2023-09-06T06:25:08.085Z,62.68
2023-09-06T06:27:34.759Z,56.88
2023-09-06T06:30:01.367Z,56.01
2023-09-06T06:32:27.948Z,58.12
2023-09-06T06:34:55.705Z,59.83
2023-09-06T06:37:21.958Z,61.08
2023-09-06T06:39:49.591Z,62.27
2023-09-06T06:42:15.891Z,65.92
2023-09-06T06:44:42.140Z,62.79
2023-09-06T06:47:08.386Z,57.98
2023-09-06T06:49:34.698Z,56.08
2023-09-06T06:52:00.956Z,57.80
2023-09-06T06:54:28.380Z,59.80
2023-09-06T06:56:54.657Z,60.88
2023-09-06T06:59:21.101Z,61.70
2023-09-06T07:01:48.560Z,65.53
2023-09-06T07:04:14.994Z,62.24
2023-09-06T07:06:41.264Z,56.58
2023-09-06T07:09:07.537Z,56.19
2023-09-06T07:11:34.045Z,57.76
2023-09-06T07:14:00.473Z,59.31
2023-09-06T07:16:30.151Z,60.71
2023-09-06T07:18:58.555Z,61.67
2023-09-06T07:21:26.110Z,65.44
2023-09-06T07:23:52.563Z,62.39
2023-09-06T07:26:18.893Z,56.03
2023-09-06T07:28:45.842Z,55.48
2023-09-06T07:31:12.220Z,56.98
2023-09-06T07:33:39.301Z,57.31
2023-09-06T07:36:05.648Z,58.13
2023-09-06T07:38:32.303Z,59.04
2023-09-06T07:40:59.049Z,59.14
2023-09-06T07:43:25.477Z,59.55
2023-09-06T07:45:52.176Z,60.34
2023-09-06T07:48:18.549Z,60.29
2023-09-06T07:50:44.986Z,60.62
2023-09-06T07:53:11.300Z,64.64
2023-09-06T07:55:38.432Z,61.96
2023-09-06T07:58:04.719Z,54.98
2023-09-06T08:00:31.698Z,54.05
2023-09-06T08:02:57.972Z,55.76
2023-09-06T08:05:24.988Z,56.13
2023-09-06T08:07:51.223Z,57.17
2023-09-06T08:10:18.768Z,57.89
2023-09-06T08:12:45.014Z,58.77
2023-09-06T08:15:11.380Z,59.74
2023-09-06T08:17:38.308Z,59.98
2023-09-06T08:20:05.125Z,60.71
2023-09-06T08:22:43.982Z,60.78
2023-09-06T08:25:12.687Z,65.02
2023-09-06T08:27:38.920Z,62.20
2023-09-06T08:30:05.290Z,56.14
2023-09-06T08:32:31.797Z,54.43
2023-09-06T08:34:58.299Z,54.51
2023-09-06T08:37:24.514Z,56.00
2023-09-06T08:39:50.858Z,56.53
2023-09-06T08:42:17.240Z,56.85
2023-09-06T08:44:43.679Z,57.08
2023-09-06T08:47:09.952Z,58.07
2023-09-06T08:49:36.284Z,58.59
2023-09-06T08:52:03.815Z,58.50
2023-09-06T08:54:30.084Z,59.08
2023-09-06T08:56:56.478Z,59.80
2023-09-06T08:59:22.851Z,60.34
2023-09-06T09:01:49.164Z,60.39
2023-09-06T09:04:15.530Z,60.64
2023-09-06T09:06:41.901Z,61.25
2023-09-06T09:09:08.186Z,60.96
2023-09-06T09:11:34.777Z,60.54
2023-09-06T09:14:01.583Z,60.26
2023-09-06T09:16:29.635Z,60.32
2023-09-06T09:18:56.153Z,60.71
2023-09-06T09:21:22.657Z,60.27
2023-09-06T09:23:50.191Z,61.02
2023-09-06T09:26:16.875Z,60.90
2023-09-06T09:28:43.171Z,60.26
2023-09-06T09:31:09.961Z,60.74
2023-09-06T09:33:36.526Z,59.93
2023-09-06T09:36:03.063Z,59.07
2023-09-06T09:38:29.624Z,58.58
2023-09-06T09:40:56.235Z,58.27
2023-09-06T09:43:22.489Z,56.71
2023-09-06T09:45:49.239Z,57.60
2023-09-06T09:48:15.863Z,56.68
2023-09-06T09:50:42.447Z,56.60
2023-09-06T09:53:33.887Z,57.61
2023-09-06T09:55:55.942Z,58.70
2023-09-06T09:58:23.288Z,58.84
2023-09-06T10:00:52.599Z,57.16
2023-09-06T10:03:19.373Z,56.96
2023-09-06T10:05:46.078Z,57.59
2023-09-06T10:08:12.353Z,57.56
2023-09-06T10:10:38.607Z,56.39
2023-09-06T10:13:08.310Z,56.72
2023-09-06T10:15:34.921Z,55.22
2023-09-06T10:18:01.214Z,54.67
2023-09-06T10:20:27.522Z,54.30
2023-09-06T10:22:53.810Z,53.99
2023-09-06T10:25:20.236Z,54.94
2023-09-06T10:27:46.799Z,55.28
2023-09-06T10:30:18.000Z,54.32
2023-09-06T10:32:44.335Z,53.24
2023-09-06T10:35:10.643Z,52.60
2023-09-06T10:37:36.917Z,53.25
2023-09-06T10:40:03.234Z,52.75
2023-09-06T10:42:29.616Z,52.32
2023-09-06T10:44:55.918Z,53.55
2023-09-06T10:47:22.269Z,53.07
2023-09-06T10:49:48.502Z,53.34
2023-09-06T10:52:14.818Z,53.40
2023-09-06T10:54:41.195Z,50.89
2023-09-06T10:57:07.517Z,51.33
2023-09-06T10:59:33.867Z,52.05
2023-09-06T11:02:01.128Z,51.44
2023-09-06T11:04:27.677Z,51.93
2023-09-06T11:06:54.206Z,52.03
2023-09-06T11:09:20.561Z,51.45
2023-09-06T11:11:46.808Z,50.70
2023-09-06T11:14:13.064Z,50.06
2023-09-06T11:16:39.313Z,50.49
2023-09-06T11:19:06.548Z,49.16
2023-09-06T11:21:32.898Z,49.99
2023-09-06T11:23:59.192Z,50.26
2023-09-06T11:26:26.972Z,49.64
2023-09-06T11:28:54.352Z,49.77
2023-09-06T11:31:20.982Z,48.59
2023-09-06T11:33:49.075Z,47.86
2023-09-06T11:36:15.896Z,48.78
2023-09-06T11:38:44.043Z,48.42
2023-09-06T11:41:12.340Z,46.87
2023-09-06T11:43:43.489Z,47.73
2023-09-06T11:46:12.601Z,48.38
2023-09-06T11:48:40.130Z,47.87
2023-09-06T11:51:10.671Z,49.10
2023-09-06T11:53:37.499Z,48.43
2023-09-06T11:56:07.387Z,49.29
2023-09-06T11:58:34.964Z,47.90
2023-09-06T12:01:02.075Z,48.58
2023-09-06T12:03:31.364Z,49.57
2023-09-06T12:06:01.039Z,49.18
2023-09-06T12:08:28.547Z,48.02
2023-09-06T12:10:58.916Z,48.88
2023-09-06T12:13:25.221Z,48.39
2023-09-06T12:15:51.779Z,46.74
2023-09-06T12:18:18.769Z,47.40
2023-09-06T12:20:45.247Z,46.98
2023-09-06T12:23:11.468Z,48.04
2023-09-06T12:25:37.773Z,48.57
2023-09-06T12:28:04.018Z,47.18
2023-09-06T12:30:30.694Z,48.21
2023-09-06T12:32:57.384Z,45.85
2023-09-06T12:35:23.779Z,45.49
2023-09-06T12:37:50.063Z,44.68
2023-09-06T12:40:16.471Z,44.16
2023-09-06T12:42:43.366Z,43.99
2023-09-06T12:45:09.742Z,43.66
2023-09-06T12:47:36.187Z,44.63
2023-09-06T12:50:04.623Z,44.86
2023-09-06T12:52:30.902Z,44.69
2023-09-06T12:54:57.684Z,44.52
2023-09-06T12:57:24.025Z,43.09
2023-09-06T12:59:50.321Z,42.54
2023-09-06T13:02:16.614Z,43.92
2023-09-06T13:04:43.038Z,43.02
2023-09-06T13:07:09.454Z,44.98
2023-09-06T13:09:35.715Z,44.36
2023-09-06T13:12:01.996Z,42.88
2023-09-06T13:14:30.069Z,43.39
2023-09-06T13:16:56.314Z,42.13
2023-09-06T13:19:22.585Z,42.79
2023-09-06T13:21:48.853Z,43.10
2023-09-06T13:24:16.921Z,43.34
2023-09-06T13:26:44.725Z,43.67
2023-09-06T13:29:11.124Z,42.49
2023-09-06T13:31:37.485Z,42.51
2023-09-06T13:34:03.971Z,42.34
2023-09-06T13:36:34.025Z,41.99
2023-09-06T13:39:00.363Z,42.52
2023-09-06T13:41:26.621Z,41.85
2023-09-06T13:43:52.889Z,42.64
2023-09-06T13:46:19.250Z,43.03
2023-09-06T13:48:45.549Z,43.42
2023-09-06T13:51:11.899Z,43.04
2023-09-06T13:53:38.166Z,41.66
2023-09-06T13:56:04.519Z,41.67
2023-09-06T13:58:32.656Z,41.81
2023-09-06T14:00:59.505Z,42.29
2023-09-06T14:03:26.654Z,42.79
2023-09-06T14:05:53.142Z,42.15
2023-09-06T14:08:19.661Z,41.93
2023-09-06T14:10:45.942Z,42.88
2023-09-06T14:13:12.217Z,43.25
2023-09-06T14:15:38.501Z,41.69
2023-09-06T14:18:06.783Z,41.92
2023-09-06T14:20:35.112Z,42.77
2023-09-06T14:23:01.426Z,42.10
2023-09-06T14:25:27.700Z,42.32
2023-09-06T14:27:53.966Z,42.33
2023-09-06T14:30:20.238Z,42.44
2023-09-06T14:32:46.654Z,44.00
2023-09-06T14:35:13.052Z,43.56
2023-09-06T14:37:39.327Z,44.74
2023-09-06T14:40:05.909Z,44.78
2023-09-06T14:42:33.137Z,44.98
2023-09-06T14:44:59.445Z,45.68
2023-09-06T14:47:25.798Z,45.62
2023-09-06T14:49:52.637Z,45.55
2023-09-06T14:52:19.116Z,44.58
2023-09-06T14:54:45.350Z,43.89
2023-09-06T14:57:11.603Z,43.77
2023-09-06T14:59:39.106Z,43.42
2023-09-06T15:02:05.411Z,42.29
2023-09-06T15:04:32.273Z,42.32
2023-09-06T15:06:59.666Z,42.75
2023-09-06T15:09:26.710Z,42.20
2023-09-06T15:11:53.236Z,40.75
2023-09-06T15:14:20.136Z,40.50
2023-09-06T15:16:46.504Z,40.41
2023-09-06T15:19:12.907Z,40.80
2023-09-06T15:21:43.677Z,41.29
2023-09-06T15:24:10.091Z,42.90
2023-09-06T15:26:37.234Z,41.38
2023-09-06T15:29:03.488Z,41.51
2023-09-06T15:31:31.349Z,42.18
2023-09-06T15:33:57.881Z,42.98
2023-09-06T15:36:30.576Z,42.92
2023-09-06T15:38:56.941Z,44.06
2023-09-06T15:41:24.132Z,45.09
2023-09-06T15:43:50.399Z,45.19
2023-09-06T15:46:16.747Z,45.03
2023-09-06T15:48:43.230Z,45.24
2023-09-06T15:51:09.673Z,46.86
2023-09-06T15:53:36.314Z,45.88
2023-09-06T15:56:02.850Z,45.70
2023-09-06T15:58:29.346Z,46.88
2023-09-06T16:00:55.991Z,47.43
2023-09-06T16:03:22.510Z,48.38
2023-09-06T16:05:49.312Z,49.21
2023-09-06T16:08:16.065Z,49.83
2023-09-06T16:10:42.329Z,50.54
2023-09-06T16:13:08.576Z,51.39
2023-09-06T16:15:34.846Z,51.68
2023-09-06T16:18:01.275Z,51.42
2023-09-06T16:20:28.018Z,51.61
2023-09-06T16:22:54.276Z,52.14
2023-09-06T16:25:20.618Z,52.06
2023-09-06T16:27:46.975Z,53.26
2023-09-06T16:30:14.254Z,53.26
2023-09-06T16:32:40.819Z,53.46
2023-09-06T16:35:10.668Z,53.58
2023-09-06T16:37:39.143Z,54.34
2023-09-06T16:40:09.826Z,55.65
2023-09-06T16:42:36.317Z,55.51
2023-09-06T16:45:02.749Z,55.80
2023-09-06T16:47:29.175Z,55.99
2023-09-06T16:49:55.512Z,56.63
2023-09-06T16:52:22.505Z,57.47
2023-09-06T16:54:48.986Z,57.83
2023-09-06T16:57:17.069Z,58.72
2023-09-06T16:59:44.419Z,58.81
2023-09-06T17:02:10.984Z,59.40
2023-09-06T17:04:37.483Z,59.83
2023-09-06T17:07:03.841Z,60.48
2023-09-06T17:09:30.145Z,60.77
2023-09-06T17:11:56.586Z,60.43
2023-09-06T17:14:24.448Z,61.15
2023-09-06T17:16:50.955Z,62.01
2023-09-06T17:19:17.515Z,61.89
2023-09-06T17:21:43.887Z,62.22
2023-09-06T17:24:10.376Z,64.58
2023-09-06T17:26:37.360Z,61.86
2023-09-06T17:29:07.241Z,56.53
2023-09-06T17:31:34.184Z,55.84
2023-09-06T17:34:00.725Z,56.80
2023-09-06T17:36:27.158Z,58.29
2023-09-06T17:38:54.820Z,59.39
2023-09-06T17:41:21.305Z,60.04
2023-09-06T17:43:47.787Z,60.59
2023-09-06T17:46:14.476Z,61.15
2023-09-06T17:48:40.938Z,61.81
2023-09-06T17:51:13.691Z,64.27
2023-09-06T17:53:40.786Z,61.29
2023-09-06T17:56:13.659Z,55.21
2023-09-06T17:58:40.260Z,54.65
2023-09-06T18:01:07.664Z,54.56
2023-09-06T18:03:34.210Z,56.26
2023-09-06T18:06:01.297Z,57.31
2023-09-06T18:08:28.264Z,58.25
2023-09-06T18:10:54.925Z,58.84
2023-09-06T18:13:21.230Z,59.89
2023-09-06T18:15:49.593Z,60.93
2023-09-06T18:18:16.698Z,61.31
2023-09-06T18:20:43.309Z,61.22
2023-09-06T18:23:09.642Z,61.89
2023-09-06T18:25:36.005Z,62.18
2023-09-06T18:28:02.268Z,64.78
2023-09-06T18:30:28.709Z,62.05
2023-09-06T18:32:54.980Z,56.79
2023-09-06T18:35:21.727Z,55.88
2023-09-06T18:37:49.509Z,56.66
2023-09-06T18:40:16.033Z,57.96
2023-09-06T18:42:42.365Z,59.34
2023-09-06T18:45:11.061Z,59.80
2023-09-06T18:47:37.497Z,60.63
2023-09-06T18:50:07.693Z,61.39
2023-09-06T18:52:34.590Z,61.82
2023-09-06T18:55:00.912Z,62.18
2023-09-06T18:57:27.195Z,64.65
2023-09-06T18:59:54.194Z,61.88
2023-09-06T19:02:23.647Z,56.72
2023-09-06T19:04:50.936Z,56.26
2023-09-06T19:07:17.195Z,58.07
2023-09-06T19:09:46.041Z,59.63
2023-09-06T19:12:15.853Z,60.87
2023-09-06T19:14:42.401Z,61.73
2023-09-06T19:17:08.696Z,62.12
2023-09-06T19:19:38.928Z,64.49
2023-09-06T19:22:05.201Z,61.56
2023-09-06T19:24:33.037Z,56.14
2023-09-06T19:26:59.315Z,56.15
2023-09-06T19:29:26.964Z,57.60
2023-09-06T19:31:53.308Z,59.23
2023-09-06T19:34:19.543Z,60.39
2023-09-06T19:36:45.764Z,61.39
2023-09-06T19:39:12.022Z,62.22
2023-09-06T19:41:38.281Z,64.39
2023-09-06T19:44:04.552Z,61.22
2023-09-06T19:46:30.962Z,55.82
2023-09-06T19:49:05.568Z,55.64
2023-09-06T19:51:33.000Z,57.39
2023-09-06T19:53:59.433Z,59.03
2023-09-06T19:56:25.715Z,60.50
2023-09-06T19:58:52.059Z,61.23
2023-09-06T20:01:18.420Z,61.81
2023-09-06T20:03:48.004Z,62.55
2023-09-06T20:06:14.438Z,64.27
2023-09-06T20:08:40.803Z,58.89
2023-09-06T20:11:07.150Z,55.44
2023-09-06T20:13:33.407Z,56.70
2023-09-06T20:16:01.878Z,58.47
2023-09-06T20:18:28.329Z,59.96
2023-09-06T20:20:54.843Z,60.87
2023-09-06T20:23:21.316Z,61.61
2023-09-06T20:25:47.655Z,62.25
2023-09-06T20:28:13.881Z,65.01
2023-09-06T20:30:40.217Z,61.30
2023-09-06T20:33:06.608Z,55.84
2023-09-06T20:35:33.412Z,56.13
2023-09-06T20:37:59.836Z,57.75
2023-09-06T20:40:26.692Z,59.13
2023-09-06T20:42:53.116Z,60.32
2023-09-06T20:45:20.365Z,61.13
2023-09-06T20:47:46.985Z,61.91
2023-09-06T20:50:18.968Z,64.40
2023-09-06T20:52:45.401Z,61.15
2023-09-06T20:55:11.727Z,55.85
2023-09-06T20:57:38.189Z,56.24
2023-09-06T21:00:05.938Z,57.86
2023-09-06T21:02:32.361Z,59.32
2023-09-06T21:04:59.146Z,60.58
2023-09-06T21:07:25.738Z,61.49
2023-09-06T21:09:52.994Z,62.16
2023-09-06T21:12:19.354Z,64.85
2023-09-06T21:14:45.893Z,61.30
2023-09-06T21:17:12.293Z,55.90
2023-09-06T21:19:38.735Z,56.03
2023-09-06T21:22:05.056Z,57.80
2023-09-06T21:24:31.794Z,59.60
2023-09-06T21:26:58.142Z,60.52
2023-09-06T21:29:28.640Z,61.88
2023-09-06T21:31:56.624Z,64.23
2023-09-06T21:34:23.174Z,60.73
2023-09-06T21:36:49.745Z,55.48
2023-09-06T21:39:16.236Z,55.88
2023-09-06T21:41:42.559Z,57.66
2023-09-06T21:44:08.889Z,59.54
2023-09-06T21:46:35.396Z,60.78
2023-09-06T21:49:01.870Z,61.78
2023-09-06T21:51:28.293Z,63.87
2023-09-06T21:53:54.763Z,60.65
2023-09-06T21:56:21.424Z,55.72
2023-09-06T21:58:47.917Z,56.52
2023-09-06T22:01:14.247Z,58.25
2023-09-06T22:03:40.927Z,59.51
2023-09-06T22:06:07.540Z,60.92
2023-09-06T22:08:34.697Z,61.60
2023-09-06T22:11:00.990Z,62.20
2023-09-06T22:13:27.524Z,65.37
2023-09-06T22:15:55.205Z,61.52
2023-09-06T22:18:21.723Z,55.75
2023-09-06T22:20:48.255Z,55.59
2023-09-06T22:23:16.530Z,57.47
2023-09-06T22:25:42.801Z,59.35
2023-09-06T22:28:09.598Z,60.52
2023-09-06T22:30:36.236Z,61.22
2023-09-06T22:33:02.812Z,61.84
2023-09-06T22:35:29.110Z,64.38
2023-09-06T22:37:56.050Z,61.56
2023-09-06T22:40:22.852Z,55.97
2023-09-06T22:42:49.578Z,55.84
2023-09-06T22:45:16.276Z,57.63
2023-09-06T22:47:42.737Z,59.27
2023-09-06T22:50:15.176Z,60.75
2023-09-06T22:52:44.856Z,61.42
2023-09-06T22:55:13.067Z,62.18
2023-09-06T22:57:40.122Z,64.73
2023-09-06T23:00:08.183Z,60.95
2023-09-06T23:02:34.794Z,55.45
2023-09-06T23:05:01.668Z,55.57
2023-09-06T23:07:28.652Z,57.48
2023-09-06T23:09:55.044Z,58.91
2023-09-06T23:12:22.606Z,60.22
2023-09-06T23:14:49.861Z,61.21
2023-09-06T23:17:18.830Z,61.96
2023-09-06T23:19:47.844Z,64.45
2023-09-06T23:22:14.214Z,60.95
2023-09-06T23:24:44.297Z,55.41
2023-09-06T23:27:18.304Z,55.84
2023-09-06T23:29:48.029Z,58.06
2023-09-06T23:32:17.428Z,59.71
2023-09-06T23:34:47.988Z,60.71
2023-09-06T23:37:14.449Z,61.78
2023-09-06T23:39:43.900Z,62.54
2023-09-06T23:42:10.872Z,64.43
2023-09-06T23:44:38.481Z,58.82
2023-09-06T23:47:06.980Z,55.12
2023-09-06T23:49:35.181Z,56.32
2023-09-06T23:52:01.882Z,58.22
2023-09-06T23:54:40.820Z,59.85
2023-09-06T23:57:11.478Z,60.80
2023-09-06T23:59:37.692Z,61.49
